sensor_id;sensor_type;location;lat;lon;timestamp;P1;durP1;ratioP1;P2;durP2;ratioP2
68938;SDS011;59064;45.294;11.816;2023-05-23T00:02:09;14.70;;;9.70;;
68938;SDS011;59064;45.294;11.816;2023-05-23T00:04:37;15.70;;;9.60;;
68938;SDS011;59064;45.294;11.816;2023-05-23T00:07:03;14.40;;;9.70;;
68938;SDS011;59064;45.294;11.816;2023-05-23T00:09:29;17.60;;;10.10;;
68938;SDS011;59064;45.294;11.816;2023-05-23T00:11:54;15.10;;;9.40;;
68938;SDS011;59064;45.294;11.816;2023-05-23T00:14:20;11.80;;;9.00;;
68938;SDS011;59064;45.294;11.816;2023-05-23T00:16:46;13.40;;;9.10;;
68938;SDS011;59064;45.294;11.816;2023-05-23T00:19:14;11.50;;;8.70;;
68938;SDS011;59064;45.294;11.816;2023-05-23T00:21:44;12.00;;;8.70;;
68938;SDS011;59064;45.294;11.816;2023-05-23T00:24:15;14.00;;;8.90;;
68938;SDS011;59064;45.294;11.816;2023-05-23T00:26:45;12.50;;;9.10;;
68938;SDS011;59064;45.294;11.816;2023-05-23T00:29:11;13.90;;;9.40;;
68938;SDS011;59064;45.294;11.816;2023-05-23T00:31:41;12.80;;;9.40;;
68938;SDS011;59064;45.294;11.816;2023-05-23T00:34:13;13.60;;;9.60;;
68938;SDS011;59064;45.294;11.816;2023-05-23T00:36:42;13.90;;;10.10;;
68938;SDS011;59064;45.294;11.816;2023-05-23T00:39:08;15.70;;;9.10;;
68938;SDS011;59064;45.294;11.816;2023-05-23T00:41:43;13.70;;;10.20;;
68938;SDS011;59064;45.294;11.816;2023-05-23T00:44:12;13.10;;;9.80;;
68938;SDS011;59064;45.294;11.816;2023-05-23T00:46:38;13.60;;;9.60;;
68938;SDS011;59064;45.294;11.816;2023-05-23T00:49:05;14.10;;;9.30;;
68938;SDS011;59064;45.294;11.816;2023-05-23T00:51:31;13.80;;;9.10;;
68938;SDS011;59064;45.294;11.816;2023-05-23T00:53:57;12.00;;;8.60;;
68938;SDS011;59064;45.294;11.816;2023-05-23T00:56:25;12.80;;;8.40;;
68938;SDS011;59064;45.294;11.816;2023-05-23T00:58:53;12.40;;;8.40;;
68938;SDS011;59064;45.294;11.816;2023-05-23T01:01:19;11.20;;;9.00;;
68938;SDS011;59064;45.294;11.816;2023-05-23T01:03:45;12.30;;;9.00;;
68938;SDS011;59064;45.294;11.816;2023-05-23T01:06:13;12.90;;;8.80;;
68938;SDS011;59064;45.294;11.816;2023-05-23T01:08:39;12.60;;;9.30;;
68938;SDS011;59064;45.294;11.816;2023-05-23T01:11:18;13.80;;;8.90;;
68938;SDS011;59064;45.294;11.816;2023-05-23T01:14:08;11.20;;;9.10;;
68938;SDS011;59064;45.294;11.816;2023-05-23T01:16:46;12.90;;;9.20;;
68938;SDS011;59064;45.294;11.816;2023-05-23T01:22:15;14.30;;;9.90;;
68938;SDS011;59064;45.294;11.816;2023-05-23T01:24:54;13.40;;;9.50;;
68938;SDS011;59064;45.294;11.816;2023-05-23T01:30:22;12.90;;;10.00;;
68938;SDS011;59064;45.294;11.816;2023-05-23T01:32:52;14.40;;;9.70;;
68938;SDS011;59064;45.294;11.816;2023-05-23T01:35:23;13.60;;;10.20;;
68938;SDS011;59064;45.294;11.816;2023-05-23T01:37:52;13.10;;;10.00;;
68938;SDS011;59064;45.294;11.816;2023-05-23T01:40:19;15.20;;;10.20;;
68938;SDS011;59064;45.294;11.816;2023-05-23T01:42:45;13.30;;;10.20;;
68938;SDS011;59064;45.294;11.816;2023-05-23T01:45:11;16.80;;;10.90;;
68938;SDS011;59064;45.294;11.816;2023-05-23T01:47:37;16.20;;;9.70;;
68938;SDS011;59064;45.294;11.816;2023-05-23T01:50:05;14.40;;;10.10;;
68938;SDS011;59064;45.294;11.816;2023-05-23T01:52:32;17.50;;;11.70;;
68938;SDS011;59064;45.294;11.816;2023-05-23T01:54:58;14.20;;;9.60;;
68938;SDS011;59064;45.294;11.816;2023-05-23T01:57:25;13.60;;;10.30;;
68938;SDS011;59064;45.294;11.816;2023-05-23T01:59:55;15.00;;;8.70;;
68938;SDS011;59064;45.294;11.816;2023-05-23T02:02:21;14.30;;;9.40;;
68938;SDS011;59064;45.294;11.816;2023-05-23T02:04:48;11.70;;;9.40;;
68938;SDS011;59064;45.294;11.816;2023-05-23T02:07:13;11.60;;;8.40;;
68938;SDS011;59064;45.294;11.816;2023-05-23T02:09:39;13.10;;;10.20;;
68938;SDS011;59064;45.294;11.816;2023-05-23T02:12:05;17.70;;;9.90;;
68938;SDS011;59064;45.294;11.816;2023-05-23T02:14:31;13.80;;;9.10;;
68938;SDS011;59064;45.294;11.816;2023-05-23T02:16:57;15.60;;;10.40;;
68938;SDS011;59064;45.294;11.816;2023-05-23T02:19:24;13.10;;;9.10;;
68938;SDS011;59064;45.294;11.816;2023-05-23T02:21:50;11.80;;;8.40;;
68938;SDS011;59064;45.294;11.816;2023-05-23T02:24:16;14.50;;;8.40;;
68938;SDS011;59064;45.294;11.816;2023-05-23T02:26:42;10.00;;;7.90;;
68938;SDS011;59064;45.294;11.816;2023-05-23T02:29:07;12.00;;;8.30;;
68938;SDS011;59064;45.294;11.816;2023-05-23T02:31:33;13.30;;;9.10;;
68938;SDS011;59064;45.294;11.816;2023-05-23T02:33:58;12.20;;;8.20;;
68938;SDS011;59064;45.294;11.816;2023-05-23T02:36:24;17.10;;;8.90;;
68938;SDS011;59064;45.294;11.816;2023-05-23T02:38:50;11.50;;;8.90;;
68938;SDS011;59064;45.294;11.816;2023-05-23T02:41:16;13.90;;;8.60;;
68938;SDS011;59064;45.294;11.816;2023-05-23T02:43:45;12.70;;;7.90;;
68938;SDS011;59064;45.294;11.816;2023-05-23T02:46:11;13.00;;;8.90;;
68938;SDS011;59064;45.294;11.816;2023-05-23T02:48:37;13.70;;;9.80;;
68938;SDS011;59064;45.294;11.816;2023-05-23T02:51:03;12.70;;;9.40;;
68938;SDS011;59064;45.294;11.816;2023-05-23T02:53:29;13.00;;;9.30;;
68938;SDS011;59064;45.294;11.816;2023-05-23T02:55:54;12.00;;;9.40;;
68938;SDS011;59064;45.294;11.816;2023-05-23T02:58:20;12.20;;;8.80;;
68938;SDS011;59064;45.294;11.816;2023-05-23T03:00:46;12.10;;;9.10;;
68938;SDS011;59064;45.294;11.816;2023-05-23T03:03:11;12.10;;;8.50;;
68938;SDS011;59064;45.294;11.816;2023-05-23T03:05:37;10.70;;;8.70;;
68938;SDS011;59064;45.294;11.816;2023-05-23T03:08:02;14.30;;;8.90;;
68938;SDS011;59064;45.294;11.816;2023-05-23T03:10:29;13.60;;;8.50;;
68938;SDS011;59064;45.294;11.816;2023-05-23T03:12:55;9.90;;;7.30;;
68938;SDS011;59064;45.294;11.816;2023-05-23T03:15:20;12.20;;;9.20;;
68938;SDS011;59064;45.294;11.816;2023-05-23T03:17:46;11.80;;;8.40;;
68938;SDS011;59064;45.294;11.816;2023-05-23T03:20:11;12.70;;;9.00;;
68938;SDS011;59064;45.294;11.816;2023-05-23T03:22:39;13.40;;;9.00;;
68938;SDS011;59064;45.294;11.816;2023-05-23T03:25:08;16.80;;;9.20;;
68938;SDS011;59064;45.294;11.816;2023-05-23T03:27:34;15.30;;;9.00;;
68938;SDS011;59064;45.294;11.816;2023-05-23T03:29:59;16.60;;;9.70;;
68938;SDS011;59064;45.294;11.816;2023-05-23T03:32:25;12.60;;;8.70;;
68938;SDS011;59064;45.294;11.816;2023-05-23T03:34:51;12.50;;;8.10;;
68938;SDS011;59064;45.294;11.816;2023-05-23T03:37:16;12.70;;;9.00;;
68938;SDS011;59064;45.294;11.816;2023-05-23T03:39:42;11.10;;;8.70;;
68938;SDS011;59064;45.294;11.816;2023-05-23T03:42:08;13.70;;;8.90;;
68938;SDS011;59064;45.294;11.816;2023-05-23T03:44:33;10.40;;;8.20;;
68938;SDS011;59064;45.294;11.816;2023-05-23T03:46:59;14.50;;;9.10;;
68938;SDS011;59064;45.294;11.816;2023-05-23T03:49:25;14.80;;;8.70;;
68938;SDS011;59064;45.294;11.816;2023-05-23T03:51:51;11.10;;;9.00;;
68938;SDS011;59064;45.294;11.816;2023-05-23T03:54:16;12.80;;;9.10;;
68938;SDS011;59064;45.294;11.816;2023-05-23T03:56:42;13.40;;;9.50;;
68938;SDS011;59064;45.294;11.816;2023-05-23T03:59:08;15.60;;;9.40;;
68938;SDS011;59064;45.294;11.816;2023-05-23T04:01:33;13.20;;;9.30;;
68938;SDS011;59064;45.294;11.816;2023-05-23T04:03:59;12.50;;;9.50;;
68938;SDS011;59064;45.294;11.816;2023-05-23T04:06:25;12.30;;;9.50;;
68938;SDS011;59064;45.294;11.816;2023-05-23T04:08:51;13.20;;;9.00;;
68938;SDS011;59064;45.294;11.816;2023-05-23T04:11:16;17.60;;;9.50;;
68938;SDS011;59064;45.294;11.816;2023-05-23T04:13:42;13.30;;;9.40;;
68938;SDS011;59064;45.294;11.816;2023-05-23T04:16:08;12.40;;;9.20;;
68938;SDS011;59064;45.294;11.816;2023-05-23T04:18:35;12.40;;;9.20;;
68938;SDS011;59064;45.294;11.816;2023-05-23T04:21:03;14.90;;;9.40;;
68938;SDS011;59064;45.294;11.816;2023-05-23T04:23:29;14.10;;;9.70;;
68938;SDS011;59064;45.294;11.816;2023-05-23T04:25:54;15.70;;;9.90;;
68938;SDS011;59064;45.294;11.816;2023-05-23T04:28:22;12.00;;;9.10;;
68938;SDS011;59064;45.294;11.816;2023-05-23T04:30:47;13.90;;;9.70;;
68938;SDS011;59064;45.294;11.816;2023-05-23T04:33:14;12.70;;;9.30;;
68938;SDS011;59064;45.294;11.816;2023-05-23T04:35:41;12.40;;;9.60;;
68938;SDS011;59064;45.294;11.816;2023-05-23T04:38:08;14.80;;;9.80;;
68938;SDS011;59064;45.294;11.816;2023-05-23T04:40:34;14.30;;;10.10;;
68938;SDS011;59064;45.294;11.816;2023-05-23T04:43:00;13.60;;;9.50;;
68938;SDS011;59064;45.294;11.816;2023-05-23T04:45:26;14.90;;;9.60;;
68938;SDS011;59064;45.294;11.816;2023-05-23T04:47:52;16.00;;;10.60;;
68938;SDS011;59064;45.294;11.816;2023-05-23T04:50:20;17.10;;;10.30;;
68938;SDS011;59064;45.294;11.816;2023-05-23T04:52:47;14.30;;;10.20;;
68938;SDS011;59064;45.294;11.816;2023-05-23T04:55:13;17.90;;;11.20;;
68938;SDS011;59064;45.294;11.816;2023-05-23T04:57:39;13.50;;;10.80;;
68938;SDS011;59064;45.294;11.816;2023-05-23T05:00:05;15.20;;;11.10;;
68938;SDS011;59064;45.294;11.816;2023-05-23T05:02:35;15.20;;;11.00;;
68938;SDS011;59064;45.294;11.816;2023-05-23T05:05:01;15.40;;;11.30;;
68938;SDS011;59064;45.294;11.816;2023-05-23T05:07:29;15.50;;;11.20;;
68938;SDS011;59064;45.294;11.816;2023-05-23T05:09:55;14.10;;;10.50;;
68938;SDS011;59064;45.294;11.816;2023-05-23T05:12:21;14.90;;;10.00;;
68938;SDS011;59064;45.294;11.816;2023-05-23T05:14:46;15.10;;;11.50;;
68938;SDS011;59064;45.294;11.816;2023-05-23T05:17:12;14.10;;;10.20;;
68938;SDS011;59064;45.294;11.816;2023-05-23T05:19:38;13.90;;;10.80;;
68938;SDS011;59064;45.294;11.816;2023-05-23T05:22:03;15.20;;;10.80;;
68938;SDS011;59064;45.294;11.816;2023-05-23T05:24:29;13.90;;;10.30;;
68938;SDS011;59064;45.294;11.816;2023-05-23T05:26:56;14.90;;;10.20;;
68938;SDS011;59064;45.294;11.816;2023-05-23T05:29:22;15.70;;;10.90;;
68938;SDS011;59064;45.294;11.816;2023-05-23T05:31:48;14.40;;;11.30;;
68938;SDS011;59064;45.294;11.816;2023-05-23T05:34:14;15.60;;;10.60;;
68938;SDS011;59064;45.294;11.816;2023-05-23T05:36:40;12.30;;;10.70;;
68938;SDS011;59064;45.294;11.816;2023-05-23T05:39:13;15.70;;;10.80;;
68938;SDS011;59064;45.294;11.816;2023-05-23T05:41:39;13.20;;;10.40;;
68938;SDS011;59064;45.294;11.816;2023-05-23T05:44:06;14.00;;;10.30;;
68938;SDS011;59064;45.294;11.816;2023-05-23T05:46:32;16.10;;;10.30;;
68938;SDS011;59064;45.294;11.816;2023-05-23T05:48:58;13.10;;;9.80;;
68938;SDS011;59064;45.294;11.816;2023-05-23T05:51:24;12.70;;;10.30;;
68938;SDS011;59064;45.294;11.816;2023-05-23T05:53:49;17.90;;;11.00;;
68938;SDS011;59064;45.294;11.816;2023-05-23T05:56:15;14.20;;;10.00;;
68938;SDS011;59064;45.294;11.816;2023-05-23T05:58:41;14.70;;;9.30;;
68938;SDS011;59064;45.294;11.816;2023-05-23T06:01:06;15.10;;;10.20;;
68938;SDS011;59064;45.294;11.816;2023-05-23T06:03:32;12.30;;;9.80;;
68938;SDS011;59064;45.294;11.816;2023-05-23T06:05:58;14.20;;;9.40;;
68938;SDS011;59064;45.294;11.816;2023-05-23T06:08:24;11.40;;;9.20;;
68938;SDS011;59064;45.294;11.816;2023-05-23T06:10:50;13.00;;;9.40;;
68938;SDS011;59064;45.294;11.816;2023-05-23T06:13:16;12.00;;;9.30;;
68938;SDS011;59064;45.294;11.816;2023-05-23T06:15:42;13.50;;;10.20;;
68938;SDS011;59064;45.294;11.816;2023-05-23T06:18:08;13.20;;;9.40;;
68938;SDS011;59064;45.294;11.816;2023-05-23T06:20:33;13.20;;;9.00;;
68938;SDS011;59064;45.294;11.816;2023-05-23T06:22:59;11.80;;;8.80;;
68938;SDS011;59064;45.294;11.816;2023-05-23T06:25:26;9.20;;;7.90;;
68938;SDS011;59064;45.294;11.816;2023-05-23T06:27:52;12.20;;;9.50;;
68938;SDS011;59064;45.294;11.816;2023-05-23T06:30:17;12.60;;;9.50;;
68938;SDS011;59064;45.294;11.816;2023-05-23T06:32:43;12.90;;;8.90;;
68938;SDS011;59064;45.294;11.816;2023-05-23T06:35:08;11.80;;;8.50;;
68938;SDS011;59064;45.294;11.816;2023-05-23T06:37:34;13.70;;;8.20;;
68938;SDS011;59064;45.294;11.816;2023-05-23T06:40:00;13.60;;;8.70;;
68938;SDS011;59064;45.294;11.816;2023-05-23T06:42:26;13.00;;;9.40;;
68938;SDS011;59064;45.294;11.816;2023-05-23T06:44:51;11.50;;;8.30;;
68938;SDS011;59064;45.294;11.816;2023-05-23T06:47:17;11.90;;;8.40;;
68938;SDS011;59064;45.294;11.816;2023-05-23T06:49:43;12.00;;;8.40;;
68938;SDS011;59064;45.294;11.816;2023-05-23T06:52:09;11.90;;;9.30;;
68938;SDS011;59064;45.294;11.816;2023-05-23T06:54:35;12.20;;;8.40;;
68938;SDS011;59064;45.294;11.816;2023-05-23T06:57:01;13.90;;;8.60;;
68938;SDS011;59064;45.294;11.816;2023-05-23T06:59:26;12.40;;;9.20;;
68938;SDS011;59064;45.294;11.816;2023-05-23T07:01:52;12.00;;;9.00;;
68938;SDS011;59064;45.294;11.816;2023-05-23T07:04:17;13.00;;;9.30;;
68938;SDS011;59064;45.294;11.816;2023-05-23T07:06:43;11.30;;;8.50;;
68938;SDS011;59064;45.294;11.816;2023-05-23T07:09:09;11.30;;;7.60;;
68938;SDS011;59064;45.294;11.816;2023-05-23T07:11:36;9.30;;;7.60;;
68938;SDS011;59064;45.294;11.816;2023-05-23T07:14:03;12.00;;;7.60;;
68938;SDS011;59064;45.294;11.816;2023-05-23T07:16:30;12.70;;;8.00;;
68938;SDS011;59064;45.294;11.816;2023-05-23T07:18:55;9.30;;;7.60;;
68938;SDS011;59064;45.294;11.816;2023-05-23T07:21:21;12.30;;;8.40;;
68938;SDS011;59064;45.294;11.816;2023-05-23T07:23:47;9.40;;;7.00;;
68938;SDS011;59064;45.294;11.816;2023-05-23T07:26:12;11.80;;;7.90;;
68938;SDS011;59064;45.294;11.816;2023-05-23T07:28:38;10.10;;;7.30;;
68938;SDS011;59064;45.294;11.816;2023-05-23T07:31:04;11.90;;;9.20;;
68938;SDS011;59064;45.294;11.816;2023-05-23T07:33:29;13.20;;;8.40;;
68938;SDS011;59064;45.294;11.816;2023-05-23T07:35:57;12.00;;;8.20;;
68938;SDS011;59064;45.294;11.816;2023-05-23T07:38:23;10.60;;;7.90;;
68938;SDS011;59064;45.294;11.816;2023-05-23T07:40:51;11.50;;;8.30;;
68938;SDS011;59064;45.294;11.816;2023-05-23T07:43:17;10.00;;;8.20;;
68938;SDS011;59064;45.294;11.816;2023-05-23T07:45:42;12.60;;;7.90;;
68938;SDS011;59064;45.294;11.816;2023-05-23T07:48:08;11.50;;;6.90;;
68938;SDS011;59064;45.294;11.816;2023-05-23T07:50:34;14.70;;;8.20;;
68938;SDS011;59064;45.294;11.816;2023-05-23T07:52:59;12.30;;;8.50;;
68938;SDS011;59064;45.294;11.816;2023-05-23T07:55:25;9.60;;;7.30;;
68938;SDS011;59064;45.294;11.816;2023-05-23T07:57:51;13.60;;;7.80;;
68938;SDS011;59064;45.294;11.816;2023-05-23T08:00:19;10.60;;;7.60;;
68938;SDS011;59064;45.294;11.816;2023-05-23T08:02:45;9.10;;;7.00;;
68938;SDS011;59064;45.294;11.816;2023-05-23T08:05:10;9.30;;;6.90;;
68938;SDS011;59064;45.294;11.816;2023-05-23T08:07:36;9.70;;;6.40;;
68938;SDS011;59064;45.294;11.816;2023-05-23T08:10:02;9.00;;;6.50;;
68938;SDS011;59064;45.294;11.816;2023-05-23T08:12:28;9.80;;;7.20;;
68938;SDS011;59064;45.294;11.816;2023-05-23T08:14:53;10.80;;;7.60;;
68938;SDS011;59064;45.294;11.816;2023-05-23T08:17:19;11.00;;;7.50;;
68938;SDS011;59064;45.294;11.816;2023-05-23T08:19:45;8.50;;;6.50;;
68938;SDS011;59064;45.294;11.816;2023-05-23T08:22:11;10.30;;;7.20;;
68938;SDS011;59064;45.294;11.816;2023-05-23T08:24:36;10.20;;;6.80;;
68938;SDS011;59064;45.294;11.816;2023-05-23T08:27:02;10.70;;;7.50;;
68938;SDS011;59064;45.294;11.816;2023-05-23T08:29:28;12.20;;;7.70;;
68938;SDS011;59064;45.294;11.816;2023-05-23T08:31:53;10.90;;;7.30;;
68938;SDS011;59064;45.294;11.816;2023-05-23T08:34:19;8.60;;;7.10;;
68938;SDS011;59064;45.294;11.816;2023-05-23T08:36:45;8.20;;;6.30;;
68938;SDS011;59064;45.294;11.816;2023-05-23T08:39:11;9.40;;;6.70;;
68938;SDS011;59064;45.294;11.816;2023-05-23T08:41:37;8.80;;;6.40;;
68938;SDS011;59064;45.294;11.816;2023-05-23T08:44:03;7.60;;;6.20;;
68938;SDS011;59064;45.294;11.816;2023-05-23T08:46:29;10.40;;;7.70;;
68938;SDS011;59064;45.294;11.816;2023-05-23T08:48:57;10.00;;;7.10;;
68938;SDS011;59064;45.294;11.816;2023-05-23T08:51:26;10.10;;;6.30;;
68938;SDS011;59064;45.294;11.816;2023-05-23T08:53:53;8.20;;;6.00;;
68938;SDS011;59064;45.294;11.816;2023-05-23T08:56:20;11.00;;;7.20;;
68938;SDS011;59064;45.294;11.816;2023-05-23T08:58:49;9.00;;;6.20;;
68938;SDS011;59064;45.294;11.816;2023-05-23T09:01:17;10.00;;;6.40;;
68938;SDS011;59064;45.294;11.816;2023-05-23T09:03:44;9.00;;;6.90;;
68938;SDS011;59064;45.294;11.816;2023-05-23T09:06:10;10.00;;;6.80;;
68938;SDS011;59064;45.294;11.816;2023-05-23T09:08:37;9.30;;;6.70;;
68938;SDS011;59064;45.294;11.816;2023-05-23T09:11:04;8.70;;;6.80;;
68938;SDS011;59064;45.294;11.816;2023-05-23T09:13:33;9.90;;;6.90;;
68938;SDS011;59064;45.294;11.816;2023-05-23T09:16:03;9.40;;;7.10;;
68938;SDS011;59064;45.294;11.816;2023-05-23T09:18:41;11.50;;;7.60;;
68938;SDS011;59064;45.294;11.816;2023-05-23T09:21:08;12.50;;;6.70;;
68938;SDS011;59064;45.294;11.816;2023-05-23T09:23:36;10.90;;;6.90;;
68938;SDS011;59064;45.294;11.816;2023-05-23T09:26:05;9.00;;;7.30;;
68938;SDS011;59064;45.294;11.816;2023-05-23T09:28:33;11.50;;;7.10;;
68938;SDS011;59064;45.294;11.816;2023-05-23T09:31:04;10.70;;;7.30;;
68938;SDS011;59064;45.294;11.816;2023-05-23T09:33:39;10.20;;;6.80;;
68938;SDS011;59064;45.294;11.816;2023-05-23T09:36:07;9.60;;;6.70;;
68938;SDS011;59064;45.294;11.816;2023-05-23T09:38:41;9.30;;;7.00;;
68938;SDS011;59064;45.294;11.816;2023-05-23T09:41:08;12.50;;;8.10;;
68938;SDS011;59064;45.294;11.816;2023-05-23T09:43:56;11.90;;;8.30;;
68938;SDS011;59064;45.294;11.816;2023-05-23T09:46:26;11.50;;;7.20;;
68938;SDS011;59064;45.294;11.816;2023-05-23T09:48:53;13.60;;;7.60;;
68938;SDS011;59064;45.294;11.816;2023-05-23T09:51:21;11.30;;;7.60;;
68938;SDS011;59064;45.294;11.816;2023-05-23T09:53:48;11.60;;;7.40;;
68938;SDS011;59064;45.294;11.816;2023-05-23T09:56:18;9.50;;;7.30;;
68938;SDS011;59064;45.294;11.816;2023-05-23T09:58:47;10.80;;;7.20;;
68938;SDS011;59064;45.294;11.816;2023-05-23T10:01:13;10.30;;;7.50;;
68938;SDS011;59064;45.294;11.816;2023-05-23T10:03:52;9.30;;;7.30;;
68938;SDS011;59064;45.294;11.816;2023-05-23T10:06:31;10.20;;;6.40;;
68938;SDS011;59064;45.294;11.816;2023-05-23T10:09:07;7.80;;;5.60;;
68938;SDS011;59064;45.294;11.816;2023-05-23T10:14:23;8.60;;;6.50;;
68938;SDS011;59064;45.294;11.816;2023-05-23T10:17:06;10.00;;;7.30;;
68938;SDS011;59064;45.294;11.816;2023-05-23T10:22:20;10.20;;;6.80;;
68938;SDS011;59064;45.294;11.816;2023-05-23T10:24:48;8.80;;;6.00;;
68938;SDS011;59064;45.294;11.816;2023-05-23T10:27:14;8.70;;;6.20;;
68938;SDS011;59064;45.294;11.816;2023-05-23T10:29:40;9.30;;;6.30;;
68938;SDS011;59064;45.294;11.816;2023-05-23T10:32:06;12.40;;;6.60;;
68938;SDS011;59064;45.294;11.816;2023-05-23T10:40:51;7.80;;;5.70;;
68938;SDS011;59064;45.294;11.816;2023-05-23T10:46:54;8.20;;;6.00;;
68938;SDS011;59064;45.294;11.816;2023-05-23T10:49:44;9.30;;;6.20;;
68938;SDS011;59064;45.294;11.816;2023-05-23T10:52:13;8.50;;;5.20;;
68938;SDS011;59064;45.294;11.816;2023-05-23T10:54:42;9.80;;;6.20;;
68938;SDS011;59064;45.294;11.816;2023-05-23T10:57:19;9.40;;;6.20;;
68938;SDS011;59064;45.294;11.816;2023-05-23T10:59:45;8.80;;;6.20;;
68938;SDS011;59064;45.294;11.816;2023-05-23T11:02:15;9.70;;;6.10;;
68938;SDS011;59064;45.294;11.816;2023-05-23T11:04:43;10.50;;;6.10;;
68938;SDS011;59064;45.294;11.816;2023-05-23T11:07:29;8.20;;;6.40;;
68938;SDS011;59064;45.294;11.816;2023-05-23T11:10:07;8.70;;;5.80;;
68938;SDS011;59064;45.294;11.816;2023-05-23T11:12:36;9.10;;;6.30;;
68938;SDS011;59064;45.294;11.816;2023-05-23T11:18:08;9.20;;;5.40;;
68938;SDS011;59064;45.294;11.816;2023-05-23T11:20:36;8.50;;;6.20;;
68938;SDS011;59064;45.294;11.816;2023-05-23T11:23:04;9.30;;;5.20;;
68938;SDS011;59064;45.294;11.816;2023-05-23T11:25:49;9.60;;;6.60;;
68938;SDS011;59064;45.294;11.816;2023-05-23T11:28:17;11.10;;;5.40;;
68938;SDS011;59064;45.294;11.816;2023-05-23T11:30:43;10.90;;;5.60;;
68938;SDS011;59064;45.294;11.816;2023-05-23T11:33:13;6.70;;;4.90;;
68938;SDS011;59064;45.294;11.816;2023-05-23T11:35:45;7.60;;;4.90;;
68938;SDS011;59064;45.294;11.816;2023-05-23T11:38:13;7.30;;;5.30;;
68938;SDS011;59064;45.294;11.816;2023-05-23T11:40:42;8.90;;;5.90;;
68938;SDS011;59064;45.294;11.816;2023-05-23T11:43:16;9.50;;;5.80;;
68938;SDS011;59064;45.294;11.816;2023-05-23T11:45:42;6.40;;;4.70;;
68938;SDS011;59064;45.294;11.816;2023-05-23T11:48:09;7.40;;;5.30;;
68938;SDS011;59064;45.294;11.816;2023-05-23T11:51:03;8.90;;;5.50;;
68938;SDS011;59064;45.294;11.816;2023-05-23T11:53:29;9.80;;;5.90;;
68938;SDS011;59064;45.294;11.816;2023-05-23T11:55:56;8.30;;;5.90;;
68938;SDS011;59064;45.294;11.816;2023-05-23T11:58:33;10.30;;;6.10;;
68938;SDS011;59064;45.294;11.816;2023-05-23T12:01:07;9.10;;;5.20;;
68938;SDS011;59064;45.294;11.816;2023-05-23T12:03:47;8.70;;;5.40;;
68938;SDS011;59064;45.294;11.816;2023-05-23T12:06:14;6.60;;;5.00;;
68938;SDS011;59064;45.294;11.816;2023-05-23T12:08:40;8.90;;;6.00;;
68938;SDS011;59064;45.294;11.816;2023-05-23T12:11:06;6.90;;;5.80;;
68938;SDS011;59064;45.294;11.816;2023-05-23T12:13:32;8.50;;;5.50;;
68938;SDS011;59064;45.294;11.816;2023-05-23T12:16:01;7.30;;;5.50;;
68938;SDS011;59064;45.294;11.816;2023-05-23T12:18:32;8.70;;;5.10;;
68938;SDS011;59064;45.294;11.816;2023-05-23T12:21:02;7.60;;;5.70;;
68938;SDS011;59064;45.294;11.816;2023-05-23T12:23:30;9.50;;;5.80;;
68938;SDS011;59064;45.294;11.816;2023-05-23T12:25:57;7.60;;;5.90;;
68938;SDS011;59064;45.294;11.816;2023-05-23T12:28:37;8.10;;;5.50;;
68938;SDS011;59064;45.294;11.816;2023-05-23T12:33:42;7.50;;;5.40;;
68938;SDS011;59064;45.294;11.816;2023-05-23T12:36:09;7.90;;;5.70;;
68938;SDS011;59064;45.294;11.816;2023-05-23T12:38:36;7.40;;;5.10;;
68938;SDS011;59064;45.294;11.816;2023-05-23T12:41:09;7.20;;;4.70;;
68938;SDS011;59064;45.294;11.816;2023-05-23T12:43:38;6.60;;;5.30;;
68938;SDS011;59064;45.294;11.816;2023-05-23T12:46:05;8.30;;;5.70;;
68938;SDS011;59064;45.294;11.816;2023-05-23T12:48:31;8.40;;;5.90;;
68938;SDS011;59064;45.294;11.816;2023-05-23T12:50:58;9.20;;;5.90;;
68938;SDS011;59064;45.294;11.816;2023-05-23T12:53:25;9.40;;;6.00;;
68938;SDS011;59064;45.294;11.816;2023-05-23T12:55:51;7.00;;;6.10;;
68938;SDS011;59064;45.294;11.816;2023-05-23T12:58:16;7.20;;;5.60;;
68938;SDS011;59064;45.294;11.816;2023-05-23T13:00:42;8.50;;;5.70;;
68938;SDS011;59064;45.294;11.816;2023-05-23T13:03:08;10.20;;;5.00;;
68938;SDS011;59064;45.294;11.816;2023-05-23T13:05:33;9.00;;;6.00;;
68938;SDS011;59064;45.294;11.816;2023-05-23T13:07:59;9.00;;;6.00;;
68938;SDS011;59064;45.294;11.816;2023-05-23T13:10:25;8.20;;;6.10;;
68938;SDS011;59064;45.294;11.816;2023-05-23T13:12:50;9.90;;;6.10;;
68938;SDS011;59064;45.294;11.816;2023-05-23T13:15:16;8.20;;;5.70;;
68938;SDS011;59064;45.294;11.816;2023-05-23T13:17:42;7.80;;;5.90;;
68938;SDS011;59064;45.294;11.816;2023-05-23T13:20:09;9.20;;;4.90;;
68938;SDS011;59064;45.294;11.816;2023-05-23T13:22:35;8.40;;;5.50;;
68938;SDS011;59064;45.294;11.816;2023-05-23T13:25:01;6.80;;;5.10;;
68938;SDS011;59064;45.294;11.816;2023-05-23T13:27:26;7.70;;;5.60;;
68938;SDS011;59064;45.294;11.816;2023-05-23T13:29:52;8.30;;;5.30;;
68938;SDS011;59064;45.294;11.816;2023-05-23T13:32:18;7.90;;;5.30;;
68938;SDS011;59064;45.294;11.816;2023-05-23T13:34:44;7.50;;;5.50;;
68938;SDS011;59064;45.294;11.816;2023-05-23T13:37:09;8.90;;;5.80;;
68938;SDS011;59064;45.294;11.816;2023-05-23T13:39:35;6.90;;;5.40;;
68938;SDS011;59064;45.294;11.816;2023-05-23T13:42:00;7.60;;;5.70;;
68938;SDS011;59064;45.294;11.816;2023-05-23T13:44:27;8.10;;;5.60;;
68938;SDS011;59064;45.294;11.816;2023-05-23T13:46:53;7.80;;;5.80;;
68938;SDS011;59064;45.294;11.816;2023-05-23T13:49:19;8.50;;;5.30;;
68938;SDS011;59064;45.294;11.816;2023-05-23T13:51:45;7.90;;;4.80;;
68938;SDS011;59064;45.294;11.816;2023-05-23T13:54:11;7.50;;;5.60;;
68938;SDS011;59064;45.294;11.816;2023-05-23T13:56:37;6.20;;;5.20;;
68938;SDS011;59064;45.294;11.816;2023-05-23T13:59:04;7.10;;;5.10;;
68938;SDS011;59064;45.294;11.816;2023-05-23T14:01:30;6.70;;;4.90;;
68938;SDS011;59064;45.294;11.816;2023-05-23T14:03:55;6.50;;;4.70;;
68938;SDS011;59064;45.294;11.816;2023-05-23T14:06:21;8.60;;;5.30;;
68938;SDS011;59064;45.294;11.816;2023-05-23T14:08:47;7.70;;;4.70;;
68938;SDS011;59064;45.294;11.816;2023-05-23T14:11:12;7.40;;;5.20;;
68938;SDS011;59064;45.294;11.816;2023-05-23T14:13:38;7.80;;;4.80;;
68938;SDS011;59064;45.294;11.816;2023-05-23T14:16:04;6.00;;;4.60;;
68938;SDS011;59064;45.294;11.816;2023-05-23T14:18:30;6.10;;;4.40;;
68938;SDS011;59064;45.294;11.816;2023-05-23T14:20:55;6.20;;;4.70;;
68938;SDS011;59064;45.294;11.816;2023-05-23T14:23:21;7.50;;;4.80;;
68938;SDS011;59064;45.294;11.816;2023-05-23T14:25:47;7.70;;;5.10;;
68938;SDS011;59064;45.294;11.816;2023-05-23T14:28:12;8.50;;;4.90;;
68938;SDS011;59064;45.294;11.816;2023-05-23T14:30:38;5.80;;;4.50;;
68938;SDS011;59064;45.294;11.816;2023-05-23T14:33:04;7.70;;;5.50;;
68938;SDS011;59064;45.294;11.816;2023-05-23T14:35:29;9.00;;;5.10;;
68938;SDS011;59064;45.294;11.816;2023-05-23T14:37:55;7.70;;;5.20;;
68938;SDS011;59064;45.294;11.816;2023-05-23T14:40:21;8.40;;;4.90;;
68938;SDS011;59064;45.294;11.816;2023-05-23T14:42:46;8.00;;;5.20;;
68938;SDS011;59064;45.294;11.816;2023-05-23T14:45:12;9.10;;;5.60;;
68938;SDS011;59064;45.294;11.816;2023-05-23T14:47:38;6.90;;;4.80;;
68938;SDS011;59064;45.294;11.816;2023-05-23T14:50:04;8.10;;;5.40;;
68938;SDS011;59064;45.294;11.816;2023-05-23T14:52:30;7.20;;;4.50;;